Ingram, TX (78025)

10:49 AM CST on February 09, 2016 (GMT -0600)
HIGH POINTE | | Change Station
CLOSE
Current Station
Personal Weather Station
Location: Kerrville, TX
Elevation: 1965 ft
Nearby Weather Stations

Elev 1965 ft 30.11 °N, 99.23 °W | Updated 7 seconds ago

Clear
Clear
54.7 °F
Feels Like 54.7 °F
N
4.5
Wind Variable Wind from WSW
Gusts 7.4 mph

Today
High -- | Low -- °F
--% Chance of Precip.
Yesterday
High -- | Low -- °F
Precip. -- in
Pressure 30.40 in
Visibility 10.0 miles
Clouds Clear
Dew Point 25 °F
Humidity 32%
Rainfall 0.00 in
Snow Depth Not available.
7:22 AM 6:20 PM
New Moon, 2% visible
METAR KERV 091635Z AUTO 32008KT 10SM CLR 14/M04 A3040 RMK AO2 T01351045
Pressure 30.40 in
Visibility 10.0 miles
Clouds Clear
Dew Point 25 °F
Humidity 32%
Rainfall 0.00 in
Snow Depth Not available.
7:22 AM 6:20 PM
New Moon, 2% visible
METAR KERV 091635Z AUTO 32008KT 10SM CLR 14/M04 A3040 RMK AO2 T01351045

10-Day Weather Forecast

Almanac

Astronomy

Feb. 09, 2016 Rise Set
Actual Time
Civil Twilight
Nautical Twilight
Astronomical Twilight
Moon
Length of Visible Light
Length of Day
Tomorrow will be .
, % of the Moon is Illuminated

Today's Extremes

State Highs State Lows

Community

WunderPhotos

Upload Photos

1,891,631 photos uploaded!

WunderBlog® & News

Nearby

Air Quality

  Air Quality AQ Index Pollutant
Not available.

Snow Depth

Station Depth Elevation

Earthquake Activity

City Distance Mag. Time & Date
Minimum magnitude displayed is 2.5.

Coastal Water Temperatures

Place Temperature

Stations

Nearby Weather Stations

Station Location Temp. Windchill Dew Point Humidity Wind Precip. Elev Updated Type
                   

Watches & Warnings

There are currently no watches in effect.